sensor_id;sensor_type;location;lat;lon;timestamp;temperature;humidity
3678;DHT22;1855;50.934;6.958;2024-01-27T05:29:45;1.90;99.90
3678;DHT22;1855;50.934;6.958;2024-01-27T05:32:12;1.80;99.90
3678;DHT22;1855;50.934;6.958;2024-01-27T05:34:39;1.80;99.90
3678;DHT22;1855;50.934;6.958;2024-01-27T05:37:06;1.80;99.90
3678;DHT22;1855;50.934;6.958;2024-01-27T05:39:32;1.70;99.90
3678;DHT22;1855;50.934;6.958;2024-01-27T05:41:59;1.70;99.90
3678;DHT22;1855;50.934;6.958;2024-01-27T05:44:26;1.70;99.90
3678;DHT22;1855;50.934;6.958;2024-01-27T05:46:53;1.70;99.90
3678;DHT22;1855;50.934;6.958;2024-01-27T05:49:20;1.70;99.90
3678;DHT22;1855;50.934;6.958;2024-01-27T05:51:46;1.70;99.90
3678;DHT22;1855;50.934;6.958;2024-01-27T05:54:13;1.60;99.90
3678;DHT22;1855;50.934;6.958;2024-01-27T05:56:42;1.60;99.90
3678;DHT22;1855;50.934;6.958;2024-01-27T05:59:09;1.60;99.90
3678;DHT22;1855;50.934;6.958;2024-01-27T06:01:36;1.60;99.90
3678;DHT22;1855;50.934;6.958;2024-01-27T06:04:04;1.60;99.90
3678;DHT22;1855;50.934;6.958;2024-01-27T06:06:31;1.60;99.90
3678;DHT22;1855;50.934;6.958;2024-01-27T06:08:57;1.60;99.90
3678;DHT22;1855;50.934;6.958;2024-01-27T06:11:24;1.60;99.90
3678;DHT22;1855;50.934;6.958;2024-01-27T06:13:51;1.60;99.90
3678;DHT22;1855;50.934;6.958;2024-01-27T06:16:18;1.60;99.90
3678;DHT22;1855;50.934;6.958;2024-01-27T06:18:45;1.60;99.90
3678;DHT22;1855;50.934;6.958;2024-01-27T06:21:13;1.50;99.90
3678;DHT22;1855;50.934;6.958;2024-01-27T06:23:40;1.50;99.90
3678;DHT22;1855;50.934;6.958;2024-01-27T06:26:07;1.40;99.90
3678;DHT22;1855;50.934;6.958;2024-01-27T06:28:34;1.50;99.90
3678;DHT22;1855;50.934;6.958;2024-01-27T06:31:02;1.50;99.90
3678;DHT22;1855;50.934;6.958;2024-01-27T06:33:29;1.50;99.90
3678;DHT22;1855;50.934;6.958;2024-01-27T06:35:56;1.50;99.90
3678;DHT22;1855;50.934;6.958;2024-01-27T06:38:24;1.50;99.90
3678;DHT22;1855;50.934;6.958;2024-01-27T06:40:51;1.40;99.90
3678;DHT22;1855;50.934;6.958;2024-01-27T06:43:18;1.40;99.90
3678;DHT22;1855;50.934;6.958;2024-01-27T06:45:45;1.40;99.90
3678;DHT22;1855;50.934;6.958;2024-01-27T06:48:11;1.40;99.90
3678;DHT22;1855;50.934;6.958;2024-01-27T06:50:38;1.30;99.90
3678;DHT22;1855;50.934;6.958;2024-01-27T06:53:05;1.30;99.90
3678;DHT22;1855;50.934;6.958;2024-01-27T06:55:33;1.30;99.90
3678;DHT22;1855;50.934;6.958;2024-01-27T06:58:00;1.30;99.90
3678;DHT22;1855;50.934;6.958;2024-01-27T07:00:26;1.30;99.90
3678;DHT22;1855;50.934;6.958;2024-01-27T07:02:53;1.30;99.90
3678;DHT22;1855;50.934;6.958;2024-01-27T07:05:21;1.30;99.90
3678;DHT22;1855;50.934;6.958;2024-01-27T07:07:48;1.30;99.90
3678;DHT22;1855;50.934;6.958;2024-01-27T07:10:15;1.30;99.90
3678;DHT22;1855;50.934;6.958;2024-01-27T07:12:43;1.20;99.90
3678;DHT22;1855;50.934;6.958;2024-01-27T07:15:10;1.20;99.90
3678;DHT22;1855;50.934;6.958;2024-01-27T07:17:37;1.20;99.90
3678;DHT22;1855;50.934;6.958;2024-01-27T07:20:05;1.20;99.90
3678;DHT22;1855;50.934;6.958;2024-01-27T07:22:32;1.20;99.90
3678;DHT22;1855;50.934;6.958;2024-01-27T07:24:59;1.20;99.90
3678;DHT22;1855;50.934;6.958;2024-01-27T07:27:26;1.20;99.90
3678;DHT22;1855;50.934;6.958;2024-01-27T07:29:54;1.10;99.90
3678;DHT22;1855;50.934;6.958;2024-01-27T07:32:20;1.10;99.90
3678;DHT22;1855;50.934;6.958;2024-01-27T07:34:47;1.10;99.90
3678;DHT22;1855;50.934;6.958;2024-01-27T07:37:14;1.10;99.90
3678;DHT22;1855;50.934;6.958;2024-01-27T07:39:41;1.10;99.90
3678;DHT22;1855;50.934;6.958;2024-01-27T07:42:07;1.10;99.90
3678;DHT22;1855;50.934;6.958;2024-01-27T07:44:35;1.10;99.90
3678;DHT22;1855;50.934;6.958;2024-01-27T07:47:03;1.10;99.90
3678;DHT22;1855;50.934;6.958;2024-01-27T07:49:30;1.20;99.90
3678;DHT22;1855;50.934;6.958;2024-01-27T07:51:57;1.20;99.90
3678;DHT22;1855;50.934;6.958;2024-01-27T07:54:23;1.20;99.90
3678;DHT22;1855;50.934;6.958;2024-01-27T07:56:50;1.20;99.90
3678;DHT22;1855;50.934;6.958;2024-01-27T07:59:17;1.20;99.90
3678;DHT22;1855;50.934;6.958;2024-01-27T08:01:44;1.20;99.90
3678;DHT22;1855;50.934;6.958;2024-01-27T08:04:12;1.30;99.90
3678;DHT22;1855;50.934;6.958;2024-01-27T08:06:47;1.30;99.90
3678;DHT22;1855;50.934;6.958;2024-01-27T08:09:14;1.40;99.90
3678;DHT22;1855;50.934;6.958;2024-01-27T08:11:41;1.40;99.90
3678;DHT22;1855;50.934;6.958;2024-01-27T08:14:08;1.50;99.90
3678;DHT22;1855;50.934;6.958;2024-01-27T08:16:35;1.50;99.90
3678;DHT22;1855;50.934;6.958;2024-01-27T08:19:01;1.60;99.90
3678;DHT22;1855;50.934;6.958;2024-01-27T08:21:30;1.70;99.90
3678;DHT22;1855;50.934;6.958;2024-01-27T08:23:56;1.80;99.90
3678;DHT22;1855;50.934;6.958;2024-01-27T08:26:23;1.90;99.90
3678;DHT22;1855;50.934;6.958;2024-01-27T08:28:50;2.00;99.90
3678;DHT22;1855;50.934;6.958;2024-01-27T08:31:17;2.20;99.90
3678;DHT22;1855;50.934;6.958;2024-01-27T08:33:43;2.30;99.90
3678;DHT22;1855;50.934;6.958;2024-01-27T08:36:13;2.50;99.90
3678;DHT22;1855;50.934;6.958;2024-01-27T08:38:41;2.60;99.90
3678;DHT22;1855;50.934;6.958;2024-01-27T08:41:08;2.80;99.90
3678;DHT22;1855;50.934;6.958;2024-01-27T08:43:34;2.90;99.90
3678;DHT22;1855;50.934;6.958;2024-01-27T08:46:01;3.10;99.90
3678;DHT22;1855;50.934;6.958;2024-01-27T08:48:28;3.30;99.90
3678;DHT22;1855;50.934;6.958;2024-01-27T08:50:54;3.40;99.90
3678;DHT22;1855;50.934;6.958;2024-01-27T08:53:21;3.60;99.90
3678;DHT22;1855;50.934;6.958;2024-01-27T08:55:49;3.70;99.90
3678;DHT22;1855;50.934;6.958;2024-01-27T08:58:16;3.90;99.90
3678;DHT22;1855;50.934;6.958;2024-01-27T09:00:43;4.00;99.90
3678;DHT22;1855;50.934;6.958;2024-01-27T09:03:09;4.30;99.90
3678;DHT22;1855;50.934;6.958;2024-01-27T09:05:38;4.40;99.90
3678;DHT22;1855;50.934;6.958;2024-01-27T09:08:06;4.50;99.90
3678;DHT22;1855;50.934;6.958;2024-01-27T09:10:33;4.60;99.90
3678;DHT22;1855;50.934;6.958;2024-01-27T09:13:01;4.70;99.90
3678;DHT22;1855;50.934;6.958;2024-01-27T09:15:28;4.90;99.90
3678;DHT22;1855;50.934;6.958;2024-01-27T09:17:54;5.00;99.90
3678;DHT22;1855;50.934;6.958;2024-01-27T09:20:22;5.10;99.90
3678;DHT22;1855;50.934;6.958;2024-01-27T09:22:49;5.30;99.90
3678;DHT22;1855;50.934;6.958;2024-01-27T09:25:16;5.40;99.90
3678;DHT22;1855;50.934;6.958;2024-01-27T09:27:43;5.50;99.90
3678;DHT22;1855;50.934;6.958;2024-01-27T09:30:12;5.70;99.90
3678;DHT22;1855;50.934;6.958;2024-01-27T09:32:39;5.90;99.90
3678;DHT22;1855;50.934;6.958;2024-01-27T09:35:06;6.20;99.90
3678;DHT22;1855;50.934;6.958;2024-01-27T09:37:33;6.40;99.90
3678;DHT22;1855;50.934;6.958;2024-01-27T09:40:00;6.50;99.90
3678;DHT22;1855;50.934;6.958;2024-01-27T09:42:28;6.70;99.90
3678;DHT22;1855;50.934;6.958;2024-01-27T09:44:56;6.90;99.90
3678;DHT22;1855;50.934;6.958;2024-01-27T09:47:26;7.00;99.90
3678;DHT22;1855;50.934;6.958;2024-01-27T09:49:53;7.00;99.90
3678;DHT22;1855;50.934;6.958;2024-01-27T09:52:20;7.10;99.90
3678;DHT22;1855;50.934;6.958;2024-01-27T09:54:47;7.20;99.90
3678;DHT22;1855;50.934;6.958;2024-01-27T09:57:14;7.40;99.90
3678;DHT22;1855;50.934;6.958;2024-01-27T09:59:44;7.50;99.90
3678;DHT22;1855;50.934;6.958;2024-01-27T10:02:12;7.50;99.90
3678;DHT22;1855;50.934;6.958;2024-01-27T10:04:42;7.40;99.90
3678;DHT22;1855;50.934;6.958;2024-01-27T10:07:10;7.40;99.90
3678;DHT22;1855;50.934;6.958;2024-01-27T10:09:37;7.40;99.90
3678;DHT22;1855;50.934;6.958;2024-01-27T10:12:05;7.40;99.90
3678;DHT22;1855;50.934;6.958;2024-01-27T10:14:38;7.50;99.90
3678;DHT22;1855;50.934;6.958;2024-01-27T10:17:05;7.70;99.90
3678;DHT22;1855;50.934;6.958;2024-01-27T10:19:35;7.80;99.90
3678;DHT22;1855;50.934;6.958;2024-01-27T10:22:03;8.00;99.90
3678;DHT22;1855;50.934;6.958;2024-01-27T10:24:31;8.10;99.90
3678;DHT22;1855;50.934;6.958;2024-01-27T10:27:00;8.40;99.90
3678;DHT22;1855;50.934;6.958;2024-01-27T10:29:27;8.50;99.90
3678;DHT22;1855;50.934;6.958;2024-01-27T10:31:53;8.60;99.90
3678;DHT22;1855;50.934;6.958;2024-01-27T10:34:20;8.80;99.90
3678;DHT22;1855;50.934;6.958;2024-01-27T10:36:47;8.80;99.90
3678;DHT22;1855;50.934;6.958;2024-01-27T10:39:18;8.90;99.90
3678;DHT22;1855;50.934;6.958;2024-01-27T10:41:48;9.10;99.90
3678;DHT22;1855;50.934;6.958;2024-01-27T10:44:16;9.10;99.50
3678;DHT22;1855;50.934;6.958;2024-01-27T10:46:43;9.20;98.50
3678;DHT22;1855;50.934;6.958;2024-01-27T10:49:12;9.20;98.70
3678;DHT22;1855;50.934;6.958;2024-01-27T10:51:44;9.30;98.60
3678;DHT22;1855;50.934;6.958;2024-01-27T10:54:14;9.30;98.10
3678;DHT22;1855;50.934;6.958;2024-01-27T10:56:45;9.40;97.30
3678;DHT22;1855;50.934;6.958;2024-01-27T10:59:13;9.50;96.60
3678;DHT22;1855;50.934;6.958;2024-01-27T11:01:41;9.60;95.80
3678;DHT22;1855;50.934;6.958;2024-01-27T11:04:09;9.70;94.80
3678;DHT22;1855;50.934;6.958;2024-01-27T11:06:39;9.80;94.50
3678;DHT22;1855;50.934;6.958;2024-01-27T11:09:08;9.70;92.10
3678;DHT22;1855;50.934;6.958;2024-01-27T11:11:36;9.40;95.10
3678;DHT22;1855;50.934;6.958;2024-01-27T11:14:05;9.30;95.90
3678;DHT22;1855;50.934;6.958;2024-01-27T11:16:34;9.20;96.10
3678;DHT22;1855;50.934;6.958;2024-01-27T11:19:01;8.90;96.30
3678;DHT22;1855;50.934;6.958;2024-01-27T11:21:28;8.60;97.90
3678;DHT22;1855;50.934;6.958;2024-01-27T11:23:55;8.60;99.00
3678;DHT22;1855;50.934;6.958;2024-01-27T11:26:22;8.70;98.80
3678;DHT22;1855;50.934;6.958;2024-01-27T11:28:51;8.60;98.70
3678;DHT22;1855;50.934;6.958;2024-01-27T11:31:19;8.50;98.90
3678;DHT22;1855;50.934;6.958;2024-01-27T11:33:48;8.70;98.70
3678;DHT22;1855;50.934;6.958;2024-01-27T11:36:21;9.00;98.30
3678;DHT22;1855;50.934;6.958;2024-01-27T11:38:49;9.20;97.40
3678;DHT22;1855;50.934;6.958;2024-01-27T11:41:26;9.40;96.40
3678;DHT22;1855;50.934;6.958;2024-01-27T11:43:54;9.60;95.40
3678;DHT22;1855;50.934;6.958;2024-01-27T11:46:22;9.70;92.50
3678;DHT22;1855;50.934;6.958;2024-01-27T11:48:49;9.80;92.50
3678;DHT22;1855;50.934;6.958;2024-01-27T11:51:16;9.80;90.70
3678;DHT22;1855;50.934;6.958;2024-01-27T11:53:44;9.70;90.20
3678;DHT22;1855;50.934;6.958;2024-01-27T11:56:11;9.70;92.60
3678;DHT22;1855;50.934;6.958;2024-01-27T11:58:37;10.00;91.90
3678;DHT22;1855;50.934;6.958;2024-01-27T12:01:04;10.30;87.60
3678;DHT22;1855;50.934;6.958;2024-01-27T12:03:32;10.80;85.90
3678;DHT22;1855;50.934;6.958;2024-01-27T12:05:59;11.40;76.40
3678;DHT22;1855;50.934;6.958;2024-01-27T12:08:26;12.00;73.20
3678;DHT22;1855;50.934;6.958;2024-01-27T12:10:53;12.60;69.70
3678;DHT22;1855;50.934;6.958;2024-01-27T12:13:20;13.20;64.20
3678;DHT22;1855;50.934;6.958;2024-01-27T12:15:47;13.70;62.80
3678;DHT22;1855;50.934;6.958;2024-01-27T12:18:14;14.10;60.60
3678;DHT22;1855;50.934;6.958;2024-01-27T12:20:42;14.60;59.30
3678;DHT22;1855;50.934;6.958;2024-01-27T12:23:09;15.30;56.70
3678;DHT22;1855;50.934;6.958;2024-01-27T12:25:36;16.20;55.80
3678;DHT22;1855;50.934;6.958;2024-01-27T12:28:03;17.00;52.80
3678;DHT22;1855;50.934;6.958;2024-01-27T12:30:31;17.40;51.30
3678;DHT22;1855;50.934;6.958;2024-01-27T12:32:59;17.80;49.10
3678;DHT22;1855;50.934;6.958;2024-01-27T12:35:26;17.80;48.90
3678;DHT22;1855;50.934;6.958;2024-01-27T12:37:55;17.10;47.80
3678;DHT22;1855;50.934;6.958;2024-01-27T12:40:24;16.20;50.30
3678;DHT22;1855;50.934;6.958;2024-01-27T12:42:51;16.00;50.90
3678;DHT22;1855;50.934;6.958;2024-01-27T12:45:17;15.70;49.80
3678;DHT22;1855;50.934;6.958;2024-01-27T12:47:45;15.20;50.10
3678;DHT22;1855;50.934;6.958;2024-01-27T12:50:11;14.60;52.00
3678;DHT22;1855;50.934;6.958;2024-01-27T12:52:38;14.20;53.60
3678;DHT22;1855;50.934;6.958;2024-01-27T12:55:07;13.90;55.00
3678;DHT22;1855;50.934;6.958;2024-01-27T12:57:34;13.80;55.60
3678;DHT22;1855;50.934;6.958;2024-01-27T13:00:01;13.90;55.10
3678;DHT22;1855;50.934;6.958;2024-01-27T13:02:35;13.90;55.10
3678;DHT22;1855;50.934;6.958;2024-01-27T13:05:01;13.70;55.10
3678;DHT22;1855;50.934;6.958;2024-01-27T13:07:28;13.60;55.20
3678;DHT22;1855;50.934;6.958;2024-01-27T13:09:55;13.40;55.60
3678;DHT22;1855;50.934;6.958;2024-01-27T13:12:23;13.40;56.00
3678;DHT22;1855;50.934;6.958;2024-01-27T13:14:50;13.40;55.60
3678;DHT22;1855;50.934;6.958;2024-01-27T13:17:17;13.50;56.30
3678;DHT22;1855;50.934;6.958;2024-01-27T13:19:44;13.60;55.70
3678;DHT22;1855;50.934;6.958;2024-01-27T13:22:12;13.80;55.60
3678;DHT22;1855;50.934;6.958;2024-01-27T13:24:38;14.00;54.60
3678;DHT22;1855;50.934;6.958;2024-01-27T13:27:05;14.20;53.40
3678;DHT22;1855;50.934;6.958;2024-01-27T13:29:34;14.30;53.20
3678;DHT22;1855;50.934;6.958;2024-01-27T13:32:01;14.40;53.10
3678;DHT22;1855;50.934;6.958;2024-01-27T13:34:28;14.40;52.30
3678;DHT22;1855;50.934;6.958;2024-01-27T13:36:56;14.20;52.00
3678;DHT22;1855;50.934;6.958;2024-01-27T13:39:24;14.10;52.20
3678;DHT22;1855;50.934;6.958;2024-01-27T13:41:50;13.80;51.90
3678;DHT22;1855;50.934;6.958;2024-01-27T13:44:17;13.60;52.70
3678;DHT22;1855;50.934;6.958;2024-01-27T13:46:45;13.50;53.30
3678;DHT22;1855;50.934;6.958;2024-01-27T13:49:13;13.40;53.00
3678;DHT22;1855;50.934;6.958;2024-01-27T13:51:39;13.20;53.40
3678;DHT22;1855;50.934;6.958;2024-01-27T13:54:06;13.10;53.80
3678;DHT22;1855;50.934;6.958;2024-01-27T13:56:34;13.00;53.90
3678;DHT22;1855;50.934;6.958;2024-01-27T13:59:02;13.00;54.20
3678;DHT22;1855;50.934;6.958;2024-01-27T14:01:31;12.90;54.10
3678;DHT22;1855;50.934;6.958;2024-01-27T14:04:00;12.70;54.90
3678;DHT22;1855;50.934;6.958;2024-01-27T14:06:27;12.60;54.70
3678;DHT22;1855;50.934;6.958;2024-01-27T14:08:53;12.50;55.20
3678;DHT22;1855;50.934;6.958;2024-01-27T14:11:20;12.30;55.10
3678;DHT22;1855;50.934;6.958;2024-01-27T14:13:48;12.20;55.80
3678;DHT22;1855;50.934;6.958;2024-01-27T14:16:14;12.10;56.00
3678;DHT22;1855;50.934;6.958;2024-01-27T14:18:41;12.00;56.30
3678;DHT22;1855;50.934;6.958;2024-01-27T14:21:09;11.90;56.90
3678;DHT22;1855;50.934;6.958;2024-01-27T14:23:37;11.90;56.50
3678;DHT22;1855;50.934;6.958;2024-01-27T14:26:04;11.80;56.50
3678;DHT22;1855;50.934;6.958;2024-01-27T14:28:33;11.70;57.80
3678;DHT22;1855;50.934;6.958;2024-01-27T14:31:00;11.60;57.70
3678;DHT22;1855;50.934;6.958;2024-01-27T14:33:27;11.60;57.60
3678;DHT22;1855;50.934;6.958;2024-01-27T14:35:54;11.60;57.10
3678;DHT22;1855;50.934;6.958;2024-01-27T14:38:22;11.60;57.40
3678;DHT22;1855;50.934;6.958;2024-01-27T14:40:49;11.50;57.90
3678;DHT22;1855;50.934;6.958;2024-01-27T14:43:15;11.50;57.50
3678;DHT22;1855;50.934;6.958;2024-01-27T14:45:44;11.30;57.60
3678;DHT22;1855;50.934;6.958;2024-01-27T14:48:11;11.10;58.50
3678;DHT22;1855;50.934;6.958;2024-01-27T14:50:38;11.00;59.10
3678;DHT22;1855;50.934;6.958;2024-01-27T14:53:04;10.90;58.60
3678;DHT22;1855;50.934;6.958;2024-01-27T14:55:33;10.80;59.50
3678;DHT22;1855;50.934;6.958;2024-01-27T14:57:59;10.80;59.30
3678;DHT22;1855;50.934;6.958;2024-01-27T15:00:29;10.70;59.60
3678;DHT22;1855;50.934;6.958;2024-01-27T15:02:55;10.50;59.50
3678;DHT22;1855;50.934;6.958;2024-01-27T15:05:22;10.30;59.20
3678;DHT22;1855;50.934;6.958;2024-01-27T15:07:49;10.10;59.50
3678;DHT22;1855;50.934;6.958;2024-01-27T15:10:16;10.00;60.60
3678;DHT22;1855;50.934;6.958;2024-01-27T15:12:44;9.90;60.10
3678;DHT22;1855;50.934;6.958;2024-01-27T15:15:10;9.80;60.60
3678;DHT22;1855;50.934;6.958;2024-01-27T15:17:38;9.70;61.00
3678;DHT22;1855;50.934;6.958;2024-01-27T15:20:06;9.70;61.10
3678;DHT22;1855;50.934;6.958;2024-01-27T15:22:33;9.60;61.60
3678;DHT22;1855;50.934;6.958;2024-01-27T15:24:59;9.60;61.50
3678;DHT22;1855;50.934;6.958;2024-01-27T15:27:26;9.50;61.50
3678;DHT22;1855;50.934;6.958;2024-01-27T15:29:54;9.40;61.80
3678;DHT22;1855;50.934;6.958;2024-01-27T15:32:21;9.40;62.10
3678;DHT22;1855;50.934;6.958;2024-01-27T15:34:49;9.30;62.00
3678;DHT22;1855;50.934;6.958;2024-01-27T15:37:15;9.20;61.80
3678;DHT22;1855;50.934;6.958;2024-01-27T15:39:42;9.10;62.80
3678;DHT22;1855;50.934;6.958;2024-01-27T15:42:09;8.90;63.20
3678;DHT22;1855;50.934;6.958;2024-01-27T15:44:36;8.90;63.30
3678;DHT22;1855;50.934;6.958;2024-01-27T15:47:05;8.80;62.80
3678;DHT22;1855;50.934;6.958;2024-01-27T15:49:33;8.60;64.10
3678;DHT22;1855;50.934;6.958;2024-01-27T15:52:00;8.50;64.10
3678;DHT22;1855;50.934;6.958;2024-01-27T15:54:27;8.50;64.90
3678;DHT22;1855;50.934;6.958;2024-01-27T15:56:53;8.40;65.70
3678;DHT22;1855;50.934;6.958;2024-01-27T15:59:20;8.30;67.40
3678;DHT22;1855;50.934;6.958;2024-01-27T16:01:47;8.20;68.40
3678;DHT22;1855;50.934;6.958;2024-01-27T16:04:15;8.10;71.10
3678;DHT22;1855;50.934;6.958;2024-01-27T16:06:42;8.10;73.90
3678;DHT22;1855;50.934;6.958;2024-01-27T16:09:08;8.00;73.90
3678;DHT22;1855;50.934;6.958;2024-01-27T16:11:36;7.90;74.20
3678;DHT22;1855;50.934;6.958;2024-01-27T16:14:02;7.80;77.90
3678;DHT22;1855;50.934;6.958;2024-01-27T16:16:29;7.80;75.00
3678;DHT22;1855;50.934;6.958;2024-01-27T16:18:56;7.70;74.90
3678;DHT22;1855;50.934;6.958;2024-01-27T16:21:24;7.60;76.40
3678;DHT22;1855;50.934;6.958;2024-01-27T16:23:51;7.60;81.00
3678;DHT22;1855;50.934;6.958;2024-01-27T16:26:18;7.50;82.60
3678;DHT22;1855;50.934;6.958;2024-01-27T16:28:44;7.40;81.90
3678;DHT22;1855;50.934;6.958;2024-01-27T16:31:12;7.40;83.20
3678;DHT22;1855;50.934;6.958;2024-01-27T16:33:39;7.30;85.40
3678;DHT22;1855;50.934;6.958;2024-01-27T16:36:06;7.30;87.10
3678;DHT22;1855;50.934;6.958;2024-01-27T16:38:35;7.20;91.20
3678;DHT22;1855;50.934;6.958;2024-01-27T16:41:02;7.20;92.30
3678;DHT22;1855;50.934;6.958;2024-01-27T16:43:28;7.10;93.60
3678;DHT22;1855;50.934;6.958;2024-01-27T16:45:55;7.00;93.90
3678;DHT22;1855;50.934;6.958;2024-01-27T16:48:22;7.00;94.30
3678;DHT22;1855;50.934;6.958;2024-01-27T16:50:49;6.90;95.50
3678;DHT22;1855;50.934;6.958;2024-01-27T16:53:16;6.90;94.20
3678;DHT22;1855;50.934;6.958;2024-01-27T16:55:44;6.90;94.10
3678;DHT22;1855;50.934;6.958;2024-01-27T16:58:11;6.80;95.20
3678;DHT22;1855;50.934;6.958;2024-01-27T17:00:38;6.80;96.70
3678;DHT22;1855;50.934;6.958;2024-01-27T17:03:04;6.70;95.70
3678;DHT22;1855;50.934;6.958;2024-01-27T17:05:32;6.70;95.90
3678;DHT22;1855;50.934;6.958;2024-01-27T17:07:59;6.70;95.40
3678;DHT22;1855;50.934;6.958;2024-01-27T17:10:26;6.70;95.40
3678;DHT22;1855;50.934;6.958;2024-01-27T17:12:54;6.60;95.80
3678;DHT22;1855;50.934;6.958;2024-01-27T17:15:21;6.60;96.60
3678;DHT22;1855;50.934;6.958;2024-01-27T17:17:47;6.50;98.10
3678;DHT22;1855;50.934;6.958;2024-01-27T17:20:14;6.50;99.10
3678;DHT22;1855;50.934;6.958;2024-01-27T17:22:41;6.40;99.00
3678;DHT22;1855;50.934;6.958;2024-01-27T17:25:08;6.40;97.50
3678;DHT22;1855;50.934;6.958;2024-01-27T17:27:35;6.40;97.70
3678;DHT22;1855;50.934;6.958;2024-01-27T17:30:04;6.40;97.90
3678;DHT22;1855;50.934;6.958;2024-01-27T17:32:34;6.40;97.90
3678;DHT22;1855;50.934;6.958;2024-01-27T17:35:01;6.30;98.10
3678;DHT22;1855;50.934;6.958;2024-01-27T17:37:29;6.30;98.10
3678;DHT22;1855;50.934;6.958;2024-01-27T17:39:59;6.30;98.30
3678;DHT22;1855;50.934;6.958;2024-01-27T17:42:28;6.30;98.60
3678;DHT22;1855;50.934;6.958;2024-01-27T17:44:54;6.20;98.50
3678;DHT22;1855;50.934;6.958;2024-01-27T17:47:22;6.20;99.00
3678;DHT22;1855;50.934;6.958;2024-01-27T17:49:49;6.20;98.70
3678;DHT22;1855;50.934;6.958;2024-01-27T17:52:16;6.20;98.70
3678;DHT22;1855;50.934;6.958;2024-01-27T17:54:42;6.10;99.50
3678;DHT22;1855;50.934;6.958;2024-01-27T17:57:09;6.10;98.60
3678;DHT22;1855;50.934;6.958;2024-01-27T17:59:37;6.10;98.90
3678;DHT22;1855;50.934;6.958;2024-01-27T18:02:05;6.10;98.30
3678;DHT22;1855;50.934;6.958;2024-01-27T18:04:33;6.10;98.10
3678;DHT22;1855;50.934;6.958;2024-01-27T18:07:00;6.10;98.70
3678;DHT22;1855;50.934;6.958;2024-01-27T18:09:27;6.10;98.90
3678;DHT22;1855;50.934;6.958;2024-01-27T18:11:53;6.00;99.10
3678;DHT22;1855;50.934;6.958;2024-01-27T18:14:21;6.00;99.90
3678;DHT22;1855;50.934;6.958;2024-01-27T18:16:48;5.90;99.90
3678;DHT22;1855;50.934;6.958;2024-01-27T18:19:14;5.90;99.90
3678;DHT22;1855;50.934;6.958;2024-01-27T18:21:45;5.80;99.90
3678;DHT22;1855;50.934;6.958;2024-01-27T18:24:11;5.80;99.90
3678;DHT22;1855;50.934;6.958;2024-01-27T18:26:38;5.70;99.90
3678;DHT22;1855;50.934;6.958;2024-01-27T18:29:05;5.60;99.90
3678;DHT22;1855;50.934;6.958;2024-01-27T18:31:32;5.70;99.90
3678;DHT22;1855;50.934;6.958;2024-01-27T18:33:59;5.60;99.90
3678;DHT22;1855;50.934;6.958;2024-01-27T18:36:26;5.50;99.90
3678;DHT22;1855;50.934;6.958;2024-01-27T18:38:54;5.50;99.90
3678;DHT22;1855;50.934;6.958;2024-01-27T18:41:21;5.50;99.90
3678;DHT22;1855;50.934;6.958;2024-01-27T18:43:48;5.50;99.90
3678;DHT22;1855;50.934;6.958;2024-01-27T18:46:15;5.40;99.90
3678;DHT22;1855;50.934;6.958;2024-01-27T18:48:42;5.40;99.90
3678;DHT22;1855;50.934;6.958;2024-01-27T18:51:14;5.40;99.90
3678;DHT22;1855;50.934;6.958;2024-01-27T18:53:41;5.30;99.90
3678;DHT22;1855;50.934;6.958;2024-01-27T18:56:09;5.30;99.90
3678;DHT22;1855;50.934;6.958;2024-01-27T18:58:38;5.30;99.90
3678;DHT22;1855;50.934;6.958;2024-01-27T19:01:05;5.20;99.90
3678;DHT22;1855;50.934;6.958;2024-01-27T19:03:32;5.20;99.90
3678;DHT22;1855;50.934;6.958;2024-01-27T19:06:00;5.20;99.90
3678;DHT22;1855;50.934;6.958;2024-01-27T19:08:26;5.20;99.90
3678;DHT22;1855;50.934;6.958;2024-01-27T19:10:54;5.20;99.90
3678;DHT22;1855;50.934;6.958;2024-01-27T19:13:22;5.20;99.90
3678;DHT22;1855;50.934;6.958;2024-01-27T19:15:49;5.10;99.90
3678;DHT22;1855;50.934;6.958;2024-01-27T19:18:19;5.10;99.90
3678;DHT22;1855;50.934;6.958;2024-01-27T19:20:46;5.10;99.90
3678;DHT22;1855;50.934;6.958;2024-01-27T19:23:13;5.00;99.90
3678;DHT22;1855;50.934;6.958;2024-01-27T19:25:40;5.00;99.90
3678;DHT22;1855;50.934;6.958;2024-01-27T19:28:07;4.90;99.90
3678;DHT22;1855;50.934;6.958;2024-01-27T19:30:35;4.90;99.90
3678;DHT22;1855;50.934;6.958;2024-01-27T19:33:01;4.80;99.90
3678;DHT22;1855;50.934;6.958;2024-01-27T19:35:29;4.80;99.90
3678;DHT22;1855;50.934;6.958;2024-01-27T19:37:56;4.80;99.90
3678;DHT22;1855;50.934;6.958;2024-01-27T19:40:24;4.80;99.90
3678;DHT22;1855;50.934;6.958;2024-01-27T19:42:51;4.70;99.90
3678;DHT22;1855;50.934;6.958;2024-01-27T19:45:20;4.60;99.90
3678;DHT22;1855;50.934;6.958;2024-01-27T19:47:49;4.60;99.90
3678;DHT22;1855;50.934;6.958;2024-01-27T19:50:16;4.60;99.90
3678;DHT22;1855;50.934;6.958;2024-01-27T19:52:43;4.60;99.90
3678;DHT22;1855;50.934;6.958;2024-01-27T19:55:11;4.50;99.90
3678;DHT22;1855;50.934;6.958;2024-01-27T19:57:37;4.50;99.90
3678;DHT22;1855;50.934;6.958;2024-01-27T20:00:05;4.50;99.90
3678;DHT22;1855;50.934;6.958;2024-01-27T20:02:33;4.50;99.90
3678;DHT22;1855;50.934;6.958;2024-01-27T20:05:01;4.40;99.90
3678;DHT22;1855;50.934;6.958;2024-01-27T20:07:29;4.40;99.90
3678;DHT22;1855;50.934;6.958;2024-01-27T20:09:58;4.40;99.90
3678;DHT22;1855;50.934;6.958;2024-01-27T20:12:26;4.30;99.90
3678;DHT22;1855;50.934;6.958;2024-01-27T20:14:52;4.30;99.90
3678;DHT22;1855;50.934;6.958;2024-01-27T20:17:19;4.30;99.90
3678;DHT22;1855;50.934;6.958;2024-01-27T20:19:46;4.20;99.90
3678;DHT22;1855;50.934;6.958;2024-01-27T20:22:20;4.20;99.90
3678;DHT22;1855;50.934;6.958;2024-01-27T20:24:46;4.10;99.90
3678;DHT22;1855;50.934;6.958;2024-01-27T20:27:14;4.20;99.90
3678;DHT22;1855;50.934;6.958;2024-01-27T20:29:40;4.10;99.90
3678;DHT22;1855;50.934;6.958;2024-01-27T20:32:07;4.10;99.90
3678;DHT22;1855;50.934;6.958;2024-01-27T20:34:34;4.10;99.90
3678;DHT22;1855;50.934;6.958;2024-01-27T20:37:01;4.10;99.90
3678;DHT22;1855;50.934;6.958;2024-01-27T20:39:30;4.00;99.90
3678;DHT22;1855;50.934;6.958;2024-01-27T20:41:57;4.00;99.90
3678;DHT22;1855;50.934;6.958;2024-01-27T20:44:24;4.00;99.90
3678;DHT22;1855;50.934;6.958;2024-01-27T20:46:50;3.90;99.90
3678;DHT22;1855;50.934;6.958;2024-01-27T20:49:17;3.90;99.90
3678;DHT22;1855;50.934;6.958;2024-01-27T20:51:44;3.90;99.90
3678;DHT22;1855;50.934;6.958;2024-01-27T20:54:13;3.80;99.90
3678;DHT22;1855;50.934;6.958;2024-01-27T20:56:41;3.80;99.90
3678;DHT22;1855;50.934;6.958;2024-01-27T20:59:08;3.80;99.90
3678;DHT22;1855;50.934;6.958;2024-01-27T21:01:35;3.80;99.90
3678;DHT22;1855;50.934;6.958;2024-01-27T21:04:04;3.80;99.90
3678;DHT22;1855;50.934;6.958;2024-01-27T21:06:31;3.70;99.90
3678;DHT22;1855;50.934;6.958;2024-01-27T21:08:58;3.70;99.90
3678;DHT22;1855;50.934;6.958;2024-01-27T21:11:24;3.80;99.90
3678;DHT22;1855;50.934;6.958;2024-01-27T21:13:53;3.70;99.90
3678;DHT22;1855;50.934;6.958;2024-01-27T21:16:20;3.70;99.90
3678;DHT22;1855;50.934;6.958;2024-01-27T21:18:47;3.60;99.90
3678;DHT22;1855;50.934;6.958;2024-01-27T21:21:13;3.60;99.90
3678;DHT22;1855;50.934;6.958;2024-01-27T21:23:40;3.60;99.90
3678;DHT22;1855;50.934;6.958;2024-01-27T21:26:07;3.50;99.90
3678;DHT22;1855;50.934;6.958;2024-01-27T21:28:33;3.50;99.90
3678;DHT22;1855;50.934;6.958;2024-01-27T21:31:02;3.50;99.90
3678;DHT22;1855;50.934;6.958;2024-01-27T21:33:28;3.50;99.90
3678;DHT22;1855;50.934;6.958;2024-01-27T21:35:55;3.50;99.90
3678;DHT22;1855;50.934;6.958;2024-01-27T21:38:22;3.50;99.90
3678;DHT22;1855;50.934;6.958;2024-01-27T21:40:49;3.50;99.90
3678;DHT22;1855;50.934;6.958;2024-01-27T21:43:15;3.40;99.90